Time;durP1;ratioP1;P1;durP2;ratioP2;P2;SDS_P1;SDS_P2;PMS_P1;PMS_P2;Temp;Humidity;BMP_temperature;BMP_pressure;BME280_temperature;BME280_humidity;BME280_pressure;Samples;Min_cycle;Max_cycle;Signal;HPM_P1;HPM_P2
2020/12/06 00:01:46;;;;;;;25.50;13.23;;;;;;;1.83;91.90;97064.66;5020372;28;20060;-75
2020/12/06 00:04:18;;;;;;;25.02;13.45;;;;;;;1.68;92.01;97055.94;5021800;28;20047;-74
2020/12/06 00:06:44;;;;;;;23.75;12.65;;;;;;;1.78;92.39;97074.25;5044702;28;20040;-75
2020/12/06 00:09:09;;;;;;;26.75;13.73;;;;;;;1.78;92.66;97068.94;5026342;28;20395;-74
2020/12/06 00:11:34;;;;;;;25.83;13.55;;;;;;;1.81;92.86;97068.53;5019456;28;20503;-74
2020/12/06 00:14:00;;;;;;;25.73;13.88;;;;;;;1.87;92.77;97065.94;5031782;28;20061;-75
2020/12/06 00:16:25;;;;;;;28.17;13.65;;;;;;;1.79;92.65;97066.06;5032595;28;20052;-75
2020/12/06 00:18:51;;;;;;;24.95;13.48;;;;;;;1.96;91.92;97104.81;5028814;28;20048;-74
2020/12/06 00:21:18;;;;;;;28.77;13.70;;;;;;;1.88;91.78;97107.59;5032223;28;20380;-75
2020/12/06 00:23:44;;;;;;;27.40;14.05;;;;;;;1.91;92.36;97101.91;5035881;28;20026;-74
2020/12/06 00:26:10;;;;;;;26.65;13.40;;;;;;;1.74;91.83;97079.97;5032973;28;20098;-74
2020/12/06 00:28:35;;;;;;;30.02;14.30;;;;;;;1.83;91.93;97067.34;5041531;28;20029;-74
2020/12/06 00:31:01;;;;;;;23.65;13.05;;;;;;;1.82;92.55;97062.22;5033263;28;20022;-74
2020/12/06 00:33:27;;;;;;;22.67;12.65;;;;;;;1.85;92.42;97080.50;5032347;28;20037;-74
2020/12/06 00:35:53;;;;;;;23.75;12.95;;;;;;;1.78;92.67;97064.41;5032895;28;20030;-74
2020/12/06 00:38:19;;;;;;;32.20;15.18;;;;;;;1.78;92.55;97066.25;5030285;28;20033;-74
2020/12/06 00:40:44;;;;;;;27.13;13.65;;;;;;;1.77;92.64;97068.09;5040411;28;20021;-74
2020/12/06 00:43:09;;;;;;;25.33;13.70;;;;;;;1.72;92.93;97067.84;5024314;28;20025;-74
2020/12/06 00:45:35;;;;;;;27.02;14.00;;;;;;;1.76;92.79;97071.81;5033217;28;20041;-74
2020/12/06 00:48:00;;;;;;;31.48;15.52;;;;;;;1.72;92.96;97071.34;5037414;28;20040;-75
2020/12/06 00:50:25;;;;;;;32.72;15.40;;;;;;;1.75;92.33;97073.63;5053723;28;20032;-74
2020/12/06 00:52:51;;;;;;;27.73;14.40;;;;;;;1.77;92.60;97049.44;5052898;28;20061;-74
2020/12/06 00:55:16;;;;;;;27.13;13.77;;;;;;;1.74;92.54;97031.97;5036604;28;20040;-75
2020/12/06 00:57:41;;;;;;;31.08;14.98;;;;;;;1.66;92.68;97007.31;5044471;28;20036;-75
2020/12/06 01:00:09;;;;;;;25.35;13.63;;;;;;;1.79;92.42;97022.59;5052249;28;20029;-74
2020/12/06 01:02:34;;;;;;;26.40;13.25;;;;;;;1.68;92.27;97007.94;5049206;28;20029;-74
2020/12/06 01:05:00;;;;;;;26.80;14.00;;;;;;;1.67;92.89;96999.09;5028735;28;20103;-74
2020/12/06 01:07:25;;;;;;;24.98;13.25;;;;;;;1.70;92.44;97009.41;5028045;28;20156;-74
2020/12/06 01:09:50;;;;;;;27.85;14.55;;;;;;;1.65;92.82;96992.31;5030198;28;20028;-74
2020/12/06 01:12:16;;;;;;;34.50;14.70;;;;;;;1.63;92.50;96994.38;5027773;28;20025;-74
2020/12/06 01:14:41;;;;;;;26.20;14.32;;;;;;;1.54;92.42;96981.16;5037770;28;20026;-74
2020/12/06 01:17:06;;;;;;;31.70;15.00;;;;;;;1.58;92.39;96994.13;5047607;28;20040;-74
2020/12/06 01:19:31;;;;;;;32.70;15.75;;;;;;;1.73;92.48;97003.69;5053957;28;20052;-74
2020/12/06 01:21:57;;;;;;;32.28;14.73;;;;;;;1.68;92.44;96999.94;5043200;28;20022;-74
2020/12/06 01:24:22;;;;;;;35.00;15.93;;;;;;;1.65;92.40;96998.50;5055511;28;20029;-74
2020/12/06 01:26:48;;;;;;;33.15;15.85;;;;;;;1.65;92.52;96984.31;5047091;28;20040;-75
2020/12/06 01:29:14;;;;;;;33.83;15.63;;;;;;;1.72;92.54;96990.53;5054590;28;20029;-74
2020/12/06 01:31:47;;;;;;;32.78;16.13;;;;;;;1.72;92.38;97006.53;5066606;28;20028;-75
2020/12/06 01:34:12;;;;;;;35.20;15.70;;;;;;;1.66;92.78;97002.78;5091136;28;20386;-74
2020/12/06 01:36:38;;;;;;;34.88;16.67;;;;;;;1.64;92.35;97020.00;5039428;28;20020;-75
2020/12/06 01:39:03;;;;;;;32.90;16.63;;;;;;;1.58;92.58;97026.09;5046028;28;20017;-74
2020/12/06 01:41:28;;;;;;;39.22;16.70;;;;;;;1.59;92.87;97031.22;5053701;28;20041;-75
2020/12/06 01:43:58;;;;;;;34.20;16.17;;;;;;;1.60;92.79;97034.69;5053254;28;20460;-75
2020/12/06 01:46:24;;;;;;;36.72;17.02;;;;;;;1.63;92.80;97021.84;5035905;28;20034;-74
2020/12/06 01:48:53;;;;;;;40.08;16.98;;;;;;;1.65;92.38;97033.16;5046769;28;20550;-74
2020/12/06 01:51:20;;;;;;;35.38;17.02;;;;;;;1.66;92.70;97052.63;5048321;28;20026;-74
2020/12/06 01:53:47;;;;;;;35.92;16.52;;;;;;;1.68;92.67;97059.41;5032810;28;20051;-75
2020/12/06 01:56:13;;;;;;;38.10;16.48;;;;;;;1.62;92.48;97062.00;5038202;28;20029;-74
2020/12/06 01:58:39;;;;;;;40.90;17.40;;;;;;;1.59;92.21;97057.06;5013848;28;20034;-74
2020/12/06 02:01:04;;;;;;;37.90;16.45;;;;;;;1.61;92.28;97068.34;5029324;28;20022;-75
2020/12/06 02:03:30;;;;;;;40.35;16.83;;;;;;;1.64;92.59;97070.63;5013578;28;20041;-75
2020/12/06 02:05:56;;;;;;;37.42;16.55;;;;;;;1.59;92.80;97052.53;5016748;28;20080;-74
2020/12/06 02:08:21;;;;;;;36.03;16.08;;;;;;;1.57;92.54;97049.22;5027757;28;20036;-75
2020/12/06 02:10:47;;;;;;;31.35;16.02;;;;;;;1.47;92.61;97043.41;5032386;28;20029;-74
2020/12/06 02:13:12;;;;;;;34.40;16.80;;;;;;;1.49;92.88;97034.22;5031464;28;20541;-73
2020/12/06 02:15:37;;;;;;;31.52;15.90;;;;;;;1.54;92.61;97034.44;5014657;28;20061;-75
2020/12/06 02:18:03;;;;;;;36.28;16.15;;;;;;;1.59;92.77;97038.41;5022262;28;20042;-75
2020/12/06 02:20:28;;;;;;;32.58;15.35;;;;;;;1.63;92.88;97029.03;5017680;28;20087;-74
2020/12/06 02:22:53;;;;;;;39.30;17.02;;;;;;;1.59;92.94;97038.41;5032632;28;20017;-75
2020/12/06 02:25:18;;;;;;;39.97;17.58;;;;;;;1.59;92.55;97017.06;5031056;28;20029;-75
2020/12/06 02:27:44;;;;;;;33.20;15.05;;;;;;;1.54;92.72;96997.13;5028837;28;20390;-75
2020/12/06 02:30:09;;;;;;;38.80;16.30;;;;;;;1.54;92.60;96986.47;5032229;28;20032;-74
2020/12/06 02:32:34;;;;;;;41.47;16.58;;;;;;;1.57;92.70;97019.09;5031732;28;20032;-74
2020/12/06 02:35:00;;;;;;;37.80;16.83;;;;;;;1.56;92.70;97028.13;5032125;28;20501;-74
2020/12/06 02:37:25;;;;;;;37.92;16.63;;;;;;;1.58;92.68;97024.25;5027347;28;20475;-74
2020/12/06 02:39:51;;;;;;;38.40;17.52;;;;;;;1.54;92.97;97026.44;5032456;28;20028;-74
2020/12/06 02:42:17;;;;;;;34.38;15.77;;;;;;;1.52;92.85;97017.03;5025854;28;20046;-74
2020/12/06 02:44:42;;;;;;;43.25;17.45;;;;;;;1.66;92.42;97012.63;5014395;28;20060;-74
2020/12/06 02:47:07;;;;;;;36.40;16.70;;;;;;;1.70;92.12;97008.56;5014291;28;20040;-74
2020/12/06 02:49:32;;;;;;;32.70;16.08;;;;;;;1.64;91.86;96994.16;5047235;28;20123;-74
2020/12/06 02:51:58;;;;;;;30.10;14.65;;;;;;;1.64;91.44;96996.00;5029154;28;20381;-74
2020/12/06 02:54:23;;;;;;;35.22;17.00;;;;;;;1.46;91.86;96977.78;5014021;28;20038;-73
2020/12/06 02:56:48;;;;;;;37.35;16.23;;;;;;;1.58;92.07;96983.44;5028731;28;20064;-74
2020/12/06 02:59:13;;;;;;;33.28;15.50;;;;;;;1.45;91.70;96953.00;5015777;28;20030;-73
2020/12/06 03:01:39;;;;;;;36.65;16.02;;;;;;;1.43;92.12;96962.19;5023177;28;20029;-74
2020/12/06 03:04:04;;;;;;;37.97;17.73;;;;;;;1.44;92.26;96974.50;5018503;28;20349;-74
2020/12/06 03:06:29;;;;;;;39.33;17.33;;;;;;;1.33;92.12;96962.50;5014896;28;20033;-75
2020/12/06 03:08:55;;;;;;;38.25;17.10;;;;;;;1.54;92.02;96977.66;5028157;28;20135;-74
2020/12/06 03:11:27;;;;;;;40.83;16.77;;;;;;;1.37;92.31;96957.63;5029629;28;20037;-75
2020/12/06 03:13:53;;;;;;;35.28;16.83;;;;;;;1.56;92.26;96972.16;5029928;28;20017;-74
2020/12/06 03:16:18;;;;;;;41.22;17.88;;;;;;;1.45;92.29;96963.66;5030906;28;20368;-74
2020/12/06 03:18:44;;;;;;;39.42;17.20;;;;;;;1.41;91.71;96972.22;5018984;28;20448;-75
2020/12/06 03:21:09;;;;;;;34.35;16.58;;;;;;;1.41;91.74;96989.03;5015225;28;20029;-75
2020/12/06 03:23:35;;;;;;;37.67;16.85;;;;;;;1.42;91.82;96990.69;5013094;28;20082;-74
2020/12/06 03:26:00;;;;;;;38.95;17.40;;;;;;;1.54;91.92;96991.81;5029819;28;20033;-74
2020/12/06 03:28:25;;;;;;;41.95;17.52;;;;;;;1.53;92.10;96971.50;5028196;28;20068;-75
2020/12/06 03:30:50;;;;;;;36.70;17.15;;;;;;;1.54;91.76;96983.81;5027948;28;20514;-75
2020/12/06 03:33:16;;;;;;;37.47;16.58;;;;;;;1.49;91.91;96991.59;5013371;28;20121;-74
2020/12/06 03:35:41;;;;;;;41.45;17.17;;;;;;;1.47;91.54;97016.78;5021707;28;20411;-74
2020/12/06 03:38:06;;;;;;;41.78;17.10;;;;;;;1.52;91.59;97035.69;5015399;28;20040;-74
2020/12/06 03:40:31;;;;;;;41.70;16.90;;;;;;;1.58;92.11;97032.25;5031043;28;20387;-75
2020/12/06 03:42:57;;;;;;;39.88;17.33;;;;;;;1.41;91.71;97018.31;5032050;28;20083;-74
2020/12/06 03:45:22;;;;;;;40.72;17.13;;;;;;;1.41;92.04;97031.66;5024286;28;20132;-74
2020/12/06 03:47:47;;;;;;;45.70;17.58;;;;;;;1.46;91.94;97044.41;5032056;28;20029;-75
2020/12/06 03:50:13;;;;;;;45.28;17.50;;;;;;;1.45;91.96;97032.94;5029290;28;20075;-75
2020/12/06 03:52:38;;;;;;;47.47;17.67;;;;;;;1.48;92.21;97023.75;5019522;28;20025;-74
2020/12/06 03:55:05;;;;;;;40.47;17.17;;;;;;;1.50;91.94;97006.53;5016519;28;20044;-74
2020/12/06 03:57:30;;;;;;;41.25;17.35;;;;;;;1.48;91.77;96989.91;5012640;28;20033;-74
2020/12/06 03:59:55;;;;;;;39.20;16.90;;;;;;;1.51;91.91;96994.84;5017286;28;20029;-74
2020/12/06 04:02:21;;;;;;;47.65;18.08;;;;;;;1.50;91.86;96987.88;5018465;28;20478;-74
2020/12/06 04:04:46;;;;;;;41.35;17.35;;;;;;;1.53;91.93;96968.84;5025463;28;20051;-74
2020/12/06 04:07:12;;;;;;;46.28;16.00;;;;;;;1.52;91.80;96939.75;5022793;28;20040;-74
2020/12/06 04:09:37;;;;;;;47.83;17.45;;;;;;;1.48;91.48;96946.47;5023789;28;20045;-74
2020/12/06 04:12:02;;;;;;;43.47;16.98;;;;;;;1.47;91.66;96980.28;5019690;28;20487;-74
2020/12/06 04:14:28;;;;;;;47.40;17.73;;;;;;;1.49;92.08;96988.06;5034530;28;20026;-74
2020/12/06 04:16:53;;;;;;;50.65;17.58;;;;;;;1.46;91.84;96975.13;5033196;28;20372;-74
2020/12/06 04:19:18;;;;;;;43.95;17.00;;;;;;;1.48;92.13;96981.91;5029516;28;20025;-74
2020/12/06 04:21:43;;;;;;;49.65;16.98;;;;;;;1.38;91.91;96967.28;5025107;28;20406;-74
2020/12/06 04:24:12;;;;;;;41.92;16.10;;;;;;;1.47;91.88;96990.94;5028137;28;20033;-74
2020/12/06 04:26:37;;;;;;;43.58;17.75;;;;;;;1.48;92.03;96995.25;5015070;28;20030;-74
2020/12/06 04:29:02;;;;;;;48.55;17.95;;;;;;;1.45;91.80;96987.63;5031855;28;20032;-74
2020/12/06 04:31:28;;;;;;;48.80;18.52;;;;;;;1.42;91.82;96984.53;5027364;28;20046;-74
2020/12/06 04:33:53;;;;;;;44.58;17.58;;;;;;;1.42;91.66;97000.53;5015446;28;20037;-74
2020/12/06 04:36:18;;;;;;;44.58;17.88;;;;;;;1.37;91.70;96993.09;5034202;28;20047;-74
2020/12/06 04:38:44;;;;;;;46.63;18.17;;;;;;;1.42;91.91;96985.34;5032676;28;20415;-74
2020/12/06 04:41:10;;;;;;;41.08;16.35;;;;;;;1.36;91.98;96983.44;5033198;28;20395;-74
2020/12/06 04:43:36;;;;;;;41.75;18.05;;;;;;;1.38;92.32;96986.75;5015357;28;20049;-74
2020/12/06 04:46:02;;;;;;;45.17;17.98;;;;;;;1.39;92.02;96976.91;5025427;28;20029;-73
2020/12/06 04:48:40;;;;;;;47.30;18.13;;;;;;;1.47;91.95;96987.47;5041164;28;20262;-73
2020/12/06 04:51:07;;;;;;;41.70;16.77;;;;;;;1.43;91.84;96975.50;5046275;28;20037;-73
2020/12/06 04:53:40;;;;;;;46.83;18.15;;;;;;;1.48;91.70;96968.59;5014686;28;20026;-74
2020/12/06 04:56:09;;;;;;;44.80;17.73;;;;;;;1.38;91.92;96973.41;5034462;28;20056;-73
2020/12/06 04:58:38;;;;;;;44.75;16.40;;;;;;;1.46;92.11;96997.25;5069913;28;20052;-74
2020/12/06 05:01:04;;;;;;;44.90;17.33;;;;;;;1.55;91.96;97000.66;5047888;28;20418;-73
2020/12/06 05:03:34;;;;;;;48.00;18.50;;;;;;;1.48;91.43;96976.59;5027812;28;20041;-74
2020/12/06 05:06:00;;;;;;;44.97;17.00;;;;;;;1.41;91.64;96956.22;5031537;28;20041;-74
2020/12/06 05:08:25;;;;;;;36.53;16.65;;;;;;;1.38;91.65;96954.75;5034223;28;20496;-73
2020/12/06 05:10:51;;;;;;;45.13;18.05;;;;;;;1.47;91.67;96990.94;5047535;28;20117;-73
2020/12/06 05:13:17;;;;;;;40.63;16.85;;;;;;;1.51;91.49;96988.72;5033905;28;20109;-74
2020/12/06 05:15:42;;;;;;;40.40;17.95;;;;;;;1.33;91.66;96965.16;5048985;28;20048;-74
2020/12/06 05:18:08;;;;;;;48.03;17.98;;;;;;;1.35;92.13;96994.28;5044004;28;20099;-73
2020/12/06 05:20:36;;;;;;;40.25;16.67;;;;;;;1.37;91.91;97013.59;5034598;28;20489;-74
2020/12/06 05:23:02;;;;;;;46.47;17.15;;;;;;;1.34;91.81;96998.81;5033486;28;20364;-74
2020/12/06 05:25:28;;;;;;;41.78;17.33;;;;;;;1.31;91.91;96992.03;5022451;28;20034;-73
2020/12/06 05:27:53;;;;;;;45.42;16.50;;;;;;;1.30;91.97;96971.69;5021726;28;20110;-74
2020/12/06 05:30:19;;;;;;;39.58;16.60;;;;;;;1.37;92.14;96982.44;5032988;28;20057;-74
2020/12/06 05:32:45;;;;;;;42.47;16.90;;;;;;;1.42;91.88;96984.53;5032465;28;20040;-74
2020/12/06 05:35:11;;;;;;;43.28;16.75;;;;;;;1.41;91.92;96994.34;5027614;28;20026;-74
2020/12/06 05:37:39;;;;;;;44.67;17.05;;;;;;;1.43;91.86;97012.81;5023141;28;20092;-75
2020/12/06 05:40:16;;;;;;;49.58;17.33;;;;;;;1.38;91.69;96988.59;5023910;28;20541;-75
2020/12/06 05:42:42;;;;;;;43.38;16.83;;;;;;;1.44;91.68;97012.66;5030936;28;20029;-74
2020/12/06 05:45:09;;;;;;;46.45;16.77;;;;;;;1.41;91.78;97005.00;5028554;28;20060;-74
2020/12/06 05:47:35;;;;;;;44.65;17.05;;;;;;;1.41;91.93;97005.00;5032776;28;20040;-74
2020/12/06 05:50:00;;;;;;;37.75;16.35;;;;;;;1.40;91.94;96982.06;5027815;28;20034;-74
2020/12/06 05:52:30;;;;;;;45.55;16.50;;;;;;;1.46;92.00;97001.78;5041653;28;20033;-73
2020/12/06 05:54:57;;;;;;;39.92;16.73;;;;;;;1.47;91.84;96995.44;5048624;28;20112;-74
2020/12/06 05:57:28;;;;;;;41.67;16.88;;;;;;;1.43;91.94;96980.84;5015788;28;20507;-74
2020/12/06 05:59:58;;;;;;;37.85;16.90;;;;;;;1.47;91.75;96987.47;5029917;28;20029;-74
2020/12/06 06:02:24;;;;;;;44.55;16.95;;;;;;;1.41;91.72;96972.22;5041719;28;20136;-73
2020/12/06 06:04:50;;;;;;;44.88;17.27;;;;;;;1.44;91.54;96977.16;5032940;28;20463;-74
2020/12/06 06:07:21;;;;;;;43.20;16.60;;;;;;;1.44;91.23;96974.50;5033422;28;20017;-74
2020/12/06 06:09:49;;;;;;;43.17;17.00;;;;;;;1.57;91.12;96981.78;5041395;28;20059;-74
2020/12/06 06:12:23;;;;;;;41.85;16.85;;;;;;;1.54;91.41;96980.31;5018236;28;20126;-74
2020/12/06 06:14:50;;;;;;;44.00;16.20;;;;;;;1.45;91.17;96974.31;5022304;28;20022;-75
2020/12/06 06:17:15;;;;;;;45.75;17.67;;;;;;;1.55;91.35;96974.00;5031761;28;20033;-75
2020/12/06 06:19:41;;;;;;;44.28;17.45;;;;;;;1.55;91.00;96968.66;5027225;28;20033;-75
2020/12/06 06:22:07;;;;;;;50.78;19.13;;;;;;;1.48;91.23;96983.75;5032149;28;20029;-76
2020/12/06 06:24:33;;;;;;;49.58;17.77;;;;;;;1.54;91.26;96999.81;5048837;28;20045;-76
2020/12/06 06:26:59;;;;;;;49.08;19.00;;;;;;;1.52;91.52;97001.03;5035058;28;20064;-74
2020/12/06 06:29:25;;;;;;;55.47;18.58;;;;;;;1.49;90.99;97009.38;5030667;28;20498;-75
2020/12/06 06:31:52;;;;;;;58.95;20.25;;;;;;;1.51;90.87;97013.50;5031756;28;20026;-75
2020/12/06 06:34:22;;;;;;;56.83;18.38;;;;;;;1.51;91.08;97004.69;5045121;28;20030;-75
2020/12/06 06:36:50;;;;;;;49.35;18.88;;;;;;;1.52;91.05;96998.38;5031180;28;20510;-74
2020/12/06 06:39:21;;;;;;;48.15;19.02;;;;;;;1.59;91.15;97020.56;5031358;28;20029;-74
2020/12/06 06:42:07;;;;;;;51.10;18.50;;;;;;;1.52;90.50;97041.84;5032126;28;20024;-73
2020/12/06 06:44:36;;;;;;;55.30;18.10;;;;;;;1.52;90.94;97052.50;5030961;28;20025;-73
2020/12/06 06:47:03;;;;;;;38.55;14.23;;;;;;;1.54;90.71;97058.44;5047883;28;20021;-75
2020/12/06 06:49:29;;;;;;;56.42;18.13;;;;;;;1.54;90.99;97068.28;5030872;28;20041;-73
2020/12/06 06:51:54;;;;;;;45.70;18.30;;;;;;;1.52;91.07;97065.00;5031187;28;20025;-74
2020/12/06 06:54:28;;;;;;;47.38;19.30;;;;;;;1.42;91.17;97065.28;5044077;28;20026;-76
2020/12/06 06:56:55;;;;;;;51.92;19.73;;;;;;;1.43;91.37;97074.09;5038643;28;20505;-75
2020/12/06 06:59:41;;;;;;;47.67;19.05;;;;;;;1.59;91.25;97068.53;5034926;28;20029;-75
2020/12/06 07:02:18;;;;;;;51.13;19.88;;;;;;;1.43;91.08;97071.44;5027051;28;20018;-75
2020/12/06 07:04:48;;;;;;;50.72;18.65;;;;;;;1.41;91.50;97058.28;5031809;28;20022;-74
2020/12/06 07:07:15;;;;;;;47.50;18.13;;;;;;;1.53;91.65;97067.47;5032504;28;20392;-75
2020/12/06 07:09:41;;;;;;;49.47;18.52;;;;;;;1.39;91.24;97055.03;5032320;28;20029;-75
2020/12/06 07:12:09;;;;;;;54.50;19.20;;;;;;;1.42;91.11;97059.16;5025841;28;20032;-74
2020/12/06 07:14:34;;;;;;;50.45;19.17;;;;;;;1.44;91.07;97073.09;5029101;28;20487;-75
2020/12/06 07:17:00;;;;;;;49.85;18.75;;;;;;;1.50;91.46;97081.16;5030118;28;20022;-74
2020/12/06 07:19:25;;;;;;;48.20;17.58;;;;;;;1.57;91.25;97069.75;5031679;28;20483;-73
2020/12/06 07:21:51;;;;;;;50.85;17.75;;;;;;;1.43;91.16;97061.59;5031630;28;20049;-74
2020/12/06 07:24:18;;;;;;;55.65;19.67;;;;;;;1.52;90.98;97071.16;5034640;28;20582;-72
2020/12/06 07:26:46;;;;;;;52.65;18.42;;;;;;;1.45;91.37;97078.25;5044773;28;20487;-74
2020/12/06 07:29:12;;;;;;;55.20;19.33;;;;;;;1.45;91.46;97091.56;5031547;28;20025;-72
2020/12/06 07:31:38;;;;;;;50.70;19.30;;;;;;;1.49;91.66;97086.66;5030944;28;20056;-75
2020/12/06 07:34:04;;;;;;;54.08;18.90;;;;;;;1.48;91.71;97071.72;5039176;28;20051;-72
2020/12/06 07:36:37;;;;;;;53.65;20.38;;;;;;;1.54;91.48;97071.75;5045450;28;20031;-73
2020/12/06 07:39:15;;;;;;;54.75;19.90;;;;;;;1.49;91.40;97071.53;5031041;28;20132;-72
2020/12/06 07:41:45;;;;;;;54.72;19.50;;;;;;;1.53;91.49;97071.97;5031938;28;20108;-71
2020/12/06 07:44:10;;;;;;;46.42;19.25;;;;;;;1.64;91.26;97058.13;5030909;28;20029;-71
2020/12/06 07:46:35;;;;;;;52.28;19.10;;;;;;;1.64;90.85;97057.31;5034254;28;20483;-71
2020/12/06 07:49:01;;;;;;;52.50;19.58;;;;;;;1.56;90.54;97041.44;5049952;28;20022;-70
2020/12/06 07:51:26;;;;;;;53.85;18.33;;;;;;;1.66;90.73;97047.28;5035584;28;20040;-71
2020/12/06 07:53:53;;;;;;;52.38;18.83;;;;;;;1.91;90.73;97064.56;5034788;28;20479;-73
2020/12/06 07:56:20;;;;;;;54.65;20.42;;;;;;;1.80;90.05;97073.06;5033538;28;20029;-73
2020/12/06 07:59:18;;;;;;;55.20;19.05;;;;;;;1.79;90.06;97076.75;5034684;28;20029;-72
2020/12/06 08:01:46;;;;;;;55.72;19.88;;;;;;;1.85;90.04;97075.16;5035463;28;20025;-72
2020/12/06 08:04:14;;;;;;;63.92;20.63;;;;;;;1.79;89.82;97055.41;5049635;28;20029;-74
2020/12/06 08:06:45;;;;;;;64.75;20.83;;;;;;;1.76;90.08;97050.47;5034654;28;20119;-74
2020/12/06 08:09:12;;;;;;;68.20;22.02;;;;;;;1.67;90.27;97038.28;5050636;28;20021;-75
2020/12/06 08:11:46;;;;;;;61.70;22.10;;;;;;;1.66;90.97;97058.78;5034565;28;20499;-74
2020/12/06 08:14:18;;;;;;;61.25;20.55;;;;;;;1.71;91.27;97063.53;5034671;28;20021;-75
2020/12/06 08:20:13;;;;;;;74.05;22.73;;;;;;;1.77;90.62;97078.78;5015602;28;20120;-74
2020/12/06 08:23:05;;;;;;;68.78;20.08;;;;;;;1.81;90.15;97080.06;5021861;28;20610;-73
2020/12/06 08:25:32;;;;;;;62.47;20.75;;;;;;;1.72;91.00;97081.19;5029605;28;20041;-72
2020/12/06 08:28:02;;;;;;;64.30;22.17;;;;;;;1.74;90.94;97089.81;5033425;28;20571;-72
2020/12/06 08:30:29;;;;;;;72.10;20.83;;;;;;;1.80;90.74;97089.03;5032971;28;20044;-74
2020/12/06 08:32:56;;;;;;;74.70;23.80;;;;;;;1.71;90.97;97095.53;5035910;28;20124;-71
2020/12/06 08:35:41;;;;;;;63.38;21.10;;;;;;;1.87;90.47;97084.63;5034204;28;20398;-73
2020/12/06 08:38:20;;;;;;;75.05;22.77;;;;;;;1.77;90.70;97081.44;5033028;28;20116;-71
2020/12/06 08:40:57;;;;;;;;;;;;;;;1.75;90.51;97076.28;5049815;28;20079;-72
2020/12/06 08:43:23;;;;;;;73.18;20.35;;;;;;;1.82;90.99;97076.34;5034100;28;20394;-72
2020/12/06 08:46:07;;;;;;;80.55;21.90;;;;;;;1.87;91.10;97071.28;5032314;28;20029;-72
2020/12/06 08:48:33;;;;;;;61.70;19.88;;;;;;;1.93;90.43;97051.84;5032547;28;20545;-72
2020/12/06 08:50:58;;;;;;;63.60;21.73;;;;;;;2.03;90.63;97056.84;5047374;28;20025;-72
2020/12/06 08:53:23;;;;;;;61.25;20.45;;;;;;;2.05;90.37;97059.34;5029553;28;20113;-72
2020/12/06 08:55:48;;;;;;;69.20;20.52;;;;;;;2.10;90.28;97063.06;5028667;28;20021;-75
2020/12/06 08:58:29;;;;;;;63.45;21.67;;;;;;;2.06;89.97;97067.13;5033526;28;20083;-74
2020/12/06 09:01:03;;;;;;;70.78;20.60;;;;;;;2.14;90.10;97051.00;5028391;28;20025;-76
2020/12/06 09:03:28;;;;;;;64.50;21.70;;;;;;;2.00;89.91;97040.41;5029377;28;20116;-75
2020/12/06 09:05:54;;;;;;;78.18;22.33;;;;;;;2.06;90.04;97061.81;5049399;28;20057;-76
2020/12/06 09:08:19;;;;;;;72.15;23.15;;;;;;;2.02;90.80;97062.38;5034258;28;20096;-75
2020/12/06 09:10:44;;;;;;;83.07;22.40;;;;;;;2.11;90.04;97061.22;5048134;28;20026;-76
2020/12/06 09:13:10;;;;;;;85.97;22.65;;;;;;;2.13;90.72;97057.34;5033339;28;20021;-75
2020/12/06 09:15:35;;;;;;;79.07;22.48;;;;;;;2.22;90.76;97036.69;5033516;28;20105;-75
2020/12/06 09:18:00;;;;;;;67.45;20.50;;;;;;;2.38;89.67;97033.75;5047182;28;20082;-76
2020/12/06 09:20:25;;;;;;;70.13;21.73;;;;;;;2.45;89.13;97033.78;5033894;28;20029;-73
2020/12/06 09:22:51;;;;;;;76.20;22.40;;;;;;;2.64;89.36;97038.41;5040837;28;20153;-75
2020/12/06 09:25:16;;;;;;;71.55;20.08;;;;;;;2.54;89.56;97031.75;5035011;28;20028;-75
2020/12/06 09:27:41;;;;;;;87.57;20.45;;;;;;;2.51;89.84;97045.50;5050806;28;20498;-73
2020/12/06 09:30:07;;;;;;;71.03;19.50;;;;;;;2.40;90.45;97030.88;5034775;28;20025;-75
2020/12/06 09:32:32;;;;;;;72.72;21.50;;;;;;;2.55;89.59;97046.78;5035415;28;20487;-74
2020/12/06 09:34:57;;;;;;;77.45;21.52;;;;;;;2.55;89.66;97055.59;5051998;28;20025;-74
2020/12/06 09:37:22;;;;;;;152.90;24.38;;;;;;;2.42;89.28;97048.31;5051731;28;20029;-73
2020/12/06 09:39:48;;;;;;;94.93;21.50;;;;;;;2.38;90.22;97049.75;5033167;28;20025;-75
2020/12/06 09:42:13;;;;;;;143.38;21.58;;;;;;;2.29;90.17;97048.25;5036732;28;20075;-72
2020/12/06 09:44:38;;;;;;;66.20;19.38;;;;;;;2.40;90.52;97060.22;5032285;28;20108;-74
2020/12/06 09:47:04;;;;;;;70.25;19.13;;;;;;;2.46;90.47;97048.75;5032827;28;20060;-78
2020/12/06 09:49:29;;;;;;;114.22;22.58;;;;;;;2.48;90.23;97064.59;5031714;28;20466;-75
2020/12/06 09:51:54;;;;;;;153.18;22.63;;;;;;;2.40;90.23;97071.72;5033460;28;20026;-75
2020/12/06 09:54:19;;;;;;;66.03;19.70;;;;;;;2.26;91.15;97066.50;5032277;28;20044;-73
2020/12/06 09:56:45;;;;;;;275.60;26.70;;;;;;;2.29;91.44;97074.91;5032664;28;20028;-74
2020/12/06 09:59:10;;;;;;;154.00;22.40;;;;;;;2.30;91.68;97063.22;5032884;28;20104;-75
2020/12/06 10:01:36;;;;;;;74.20;19.63;;;;;;;2.35;91.78;97066.13;5032757;28;20025;-79
2020/12/06 10:04:01;;;;;;;80.22;17.98;;;;;;;2.47;91.54;97086.97;5031329;28;20075;-71
2020/12/06 10:06:27;;;;;;;97.20;20.30;;;;;;;2.39;91.70;97071.94;5035898;28;20484;-73
2020/12/06 10:08:53;;;;;;;236.48;24.15;;;;;;;2.45;91.42;97092.50;5032413;28;20021;-72
2020/12/06 10:11:19;;;;;;;170.95;20.90;;;;;;;2.50;91.60;97083.91;5031754;28;20025;-75
2020/12/06 10:13:44;;;;;;;194.30;21.05;;;;;;;2.39;91.73;97071.94;5032906;28;20036;-76
2020/12/06 10:16:09;;;;;;;208.38;23.15;;;;;;;2.34;92.22;97047.66;5036484;28;20021;-72
2020/12/06 10:18:35;;;;;;;92.72;21.17;;;;;;;2.54;92.32;97061.97;5032430;28;20038;-73
2020/12/06 10:21:00;;;;;;;119.18;21.88;;;;;;;2.44;91.90;97045.47;5032709;28;20033;-73
2020/12/06 10:23:25;;;;;;;99.07;22.40;;;;;;;2.46;92.47;97050.59;5032776;28;20027;-75
2020/12/06 10:25:51;;;;;;;179.15;21.92;;;;;;;2.48;92.02;97060.06;5018063;28;20492;-71
2020/12/06 10:28:16;;;;;;;106.13;21.08;;;;;;;2.58;92.28;97049.88;5015893;28;20041;-72
2020/12/06 10:30:41;;;;;;;201.07;21.85;;;;;;;2.61;91.63;97048.66;5032407;28;20121;-71
2020/12/06 10:33:07;;;;;;;154.50;21.60;;;;;;;2.59;91.55;97059.53;5023651;28;20385;-71
2020/12/06 10:35:32;;;;;;;183.65;21.60;;;;;;;2.64;91.56;97061.59;5015307;28;20022;-72
2020/12/06 10:37:57;;;;;;;159.07;21.77;;;;;;;2.56;91.41;97070.59;5024841;28;20034;-71
2020/12/06 10:40:23;;;;;;;94.95;22.05;;;;;;;2.51;91.91;97086.38;5018229;28;20033;-72
2020/12/06 10:42:48;;;;;;;141.00;24.02;;;;;;;2.45;92.01;97081.81;5022729;28;20026;-71
2020/12/06 10:45:14;;;;;;;198.95;24.23;;;;;;;2.39;92.00;97091.44;5028051;28;20032;-71
2020/12/06 10:47:39;;;;;;;97.18;23.02;;;;;;;2.37;92.95;97090.78;5026511;28;20032;-72
2020/12/06 10:50:04;;;;;;;88.70;19.48;;;;;;;2.52;92.13;97103.22;5011871;28;20068;-72
2020/12/06 10:52:29;;;;;;;79.10;21.15;;;;;;;2.51;92.28;97106.91;5024776;28;20059;-72
2020/12/06 10:54:55;;;;;;;82.82;20.02;;;;;;;2.33;92.39;97094.03;5021400;28;20479;-72
2020/12/06 10:57:20;;;;;;;74.40;19.98;;;;;;;2.40;92.48;97085.06;5023249;28;20025;-72
2020/12/06 10:59:46;;;;;;;63.42;18.38;;;;;;;2.52;92.83;97087.22;5027973;28;20029;-72
2020/12/06 11:02:11;;;;;;;59.70;17.90;;;;;;;2.52;92.37;97065.84;5015924;28;20037;-72
2020/12/06 11:04:36;;;;;;;53.67;16.88;;;;;;;2.66;92.34;97078.25;5013089;28;20479;-72
2020/12/06 11:07:02;;;;;;;59.53;17.25;;;;;;;2.72;92.38;97072.13;5025486;28;20052;-72
2020/12/06 11:09:27;;;;;;;54.67;15.90;;;;;;;2.75;91.84;97060.22;5027039;28;20034;-72
2020/12/06 11:11:53;;;;;;;34.60;12.82;;;;;;;2.93;91.13;97067.72;5027268;28;20030;-71
2020/12/06 11:14:18;;;;;;;37.72;13.05;;;;;;;2.89;91.48;97066.50;5027830;28;20120;-72
2020/12/06 11:16:44;;;;;;;38.03;12.23;;;;;;;2.92;91.14;97056.22;5026620;28;20022;-71
2020/12/06 11:19:10;;;;;;;40.85;14.50;;;;;;;2.95;91.09;97065.69;5030027;28;20029;-71
2020/12/06 11:21:35;;;;;;;31.77;11.75;;;;;;;2.91;91.21;97059.09;5032095;28;20108;-71
2020/12/06 11:24:00;;;;;;;28.17;10.50;;;;;;;3.05;90.74;97066.16;5032261;28;20075;-72
2020/12/06 11:26:26;;;;;;;24.70;10.13;;;;;;;2.98;90.29;97070.63;5025426;28;20045;-71